Time,TemperatureF,DewpointF,PressureIn,WindDirection,WindDirectionDegrees,WindSpeedMPH,WindSpeedGustMPH,Humidity,HourlyPrecipIn,Conditions,Clouds,dailyrainin,SoftwareType,DateUTC
2013-05-06 00:07:00,51.2,50.0,29.83,SSW,198,3.0,9.0,95,0.06,,,0.00,weatherlink.com 1.10,2013-05-06 04:07:00,
2013-05-06 00:22:00,51.0,50.0,29.83,SW,217,6.0,10.0,95,0.03,,,0.00,weatherlink.com 1.10,2013-05-06 04:22:00,
2013-05-06 00:37:00,50.7,49.0,29.82,South,181,2.0,8.0,95,0.02,,,0.00,weatherlink.com 1.10,2013-05-06 04:37:00,
2013-05-06 00:52:00,50.4,49.0,29.82,SSE,149,0.0,4.0,95,0.02,,,0.01,weatherlink.com 1.10,2013-05-06 04:52:00,
2013-05-06 01:07:00,50.3,49.0,29.82,SSW,192,1.0,5.0,95,0.01,,,0.01,weatherlink.com 1.10,2013-05-06 05:07:00,
2013-05-06 01:22:00,50.4,49.0,29.82,SSW,201,3.0,6.0,96,0.01,,,0.01,weatherlink.com 1.10,2013-05-06 05:22:00,
2013-05-06 01:37:00,50.4,49.0,29.82,SSE,167,1.0,4.0,96,0.01,,,0.01,weatherlink.com 1.10,2013-05-06 05:37:00,
2013-05-06 01:52:00,50.5,49.0,29.82,East,96,0.0,0.0,96,0.00,,,0.01,weatherlink.com 1.10,2013-05-06 05:52:00,
2013-05-06 02:08:00,50.6,50.0,29.81,South,177,0.0,1.0,96,0.00,,,0.01,weatherlink.com 1.10,2013-05-06 06:08:00,
2013-05-06 02:23:00,50.7,50.0,29.81,SSE,149,0.0,1.0,96,0.00,,,0.01,weatherlink.com 1.10,2013-05-06 06:23:00,
2013-05-06 02:38:00,51.0,50.0,29.80,SE,135,0.0,5.0,97,0.00,,,0.01,weatherlink.com 1.10,2013-05-06 06:38:00,
2013-05-06 02:53:00,51.2,50.0,29.80,WSW,250,0.0,4.0,96,0.00,,,0.01,weatherlink.com 1.10,2013-05-06 06:53:00,
2013-05-06 03:08:00,51.4,50.0,29.79,South,181,2.0,5.0,96,0.00,,,0.01,weatherlink.com 1.10,2013-05-06 07:08:00,
2013-05-06 03:23:00,52.5,51.0,29.80,SSW,202,5.0,9.0,94,0.00,,,0.01,weatherlink.com 1.10,2013-05-06 07:23:00,
2013-05-06 03:38:00,53.4,51.0,29.80,WSW,253,7.0,10.0,92,0.00,,,0.01,weatherlink.com 1.10,2013-05-06 07:38:00,
2013-05-06 03:54:00,52.9,51.0,29.80,SSE,166,5.0,10.0,93,0.00,,,0.01,weatherlink.com 1.10,2013-05-06 07:54:00,
2013-05-06 04:08:00,53.2,51.0,29.80,SSW,208,5.0,8.0,93,0.00,,,0.01,weatherlink.com 1.10,2013-05-06 08:08:00,
2013-05-06 04:23:00,53.7,51.0,29.80,SE,142,2.0,10.0,91,0.00,,,0.01,weatherlink.com 1.10,2013-05-06 08:23:00,
2013-05-06 04:38:00,53.8,51.0,29.80,SSW,207,4.0,10.0,91,0.00,,,0.01,weatherlink.com 1.10,2013-05-06 08:38:00,
2013-05-06 04:53:00,54.0,51.0,29.80,SSW,200,3.0,9.0,90,0.00,,,0.01,weatherlink.com 1.10,2013-05-06 08:53:00,
2013-05-06 05:09:00,53.9,51.0,29.79,South,190,2.0,10.0,90,0.00,,,0.01,weatherlink.com 1.10,2013-05-06 09:09:00,
2013-05-06 05:23:00,53.6,51.0,29.80,SSE,165,4.0,7.0,90,0.00,,,0.01,weatherlink.com 1.10,2013-05-06 09:23:00,
2013-05-06 05:38:00,53.5,51.0,29.80,SSW,194,3.0,7.0,91,0.00,,,0.01,weatherlink.com 1.10,2013-05-06 09:38:00,
2013-05-06 05:53:00,53.6,51.0,29.80,SSW,204,2.0,6.0,91,0.00,,,0.01,weatherlink.com 1.10,2013-05-06 09:53:00,
2013-05-06 06:08:00,53.3,51.0,29.81,South,174,1.0,4.0,91,0.00,,,0.01,weatherlink.com 1.10,2013-05-06 10:08:00,
2013-05-06 06:23:00,53.0,51.0,29.81,SSW,193,2.0,3.0,92,0.00,,,0.01,weatherlink.com 1.10,2013-05-06 10:23:00,
2013-05-06 06:38:00,52.9,51.0,29.82,SSE,150,1.0,5.0,93,0.00,,,0.01,weatherlink.com 1.10,2013-05-06 10:38:00,
2013-05-06 06:53:00,53.0,51.0,29.82,SSW,201,1.0,6.0,93,0.00,,,0.01,weatherlink.com 1.10,2013-05-06 10:53:00,
2013-05-06 07:08:00,52.8,51.0,29.82,South,181,3.0,4.0,93,0.00,,,0.01,weatherlink.com 1.10,2013-05-06 11:08:00,
2013-05-06 07:23:00,52.7,51.0,29.83,SSE,148,4.0,7.0,93,0.00,,,0.01,weatherlink.com 1.10,2013-05-06 11:23:00,
2013-05-06 07:38:00,53.0,51.0,29.84,SSE,166,4.0,6.0,93,0.00,,,0.01,weatherlink.com 1.10,2013-05-06 11:38:00,
2013-05-06 07:53:00,53.0,51.0,29.84,SSE,158,2.0,5.0,93,0.00,,,0.01,weatherlink.com 1.10,2013-05-06 11:53:00,
2013-05-06 08:08:00,52.8,51.0,29.85,SW,221,0.0,3.0,93,0.00,,,0.01,weatherlink.com 1.10,2013-05-06 12:08:00,
2013-05-06 08:23:00,53.3,51.0,29.85,SSE,162,4.0,4.0,92,0.00,,,0.01,weatherlink.com 1.10,2013-05-06 12:23:00,
2013-05-06 08:38:00,54.4,51.0,29.85,SSE,168,3.0,8.0,89,0.00,,,0.01,weatherlink.com 1.10,2013-05-06 12:38:00,
2013-05-06 08:53:00,55.5,51.0,29.86,SSW,193,5.0,8.0,86,0.00,,,0.01,weatherlink.com 1.10,2013-05-06 12:53:00,
2013-05-06 09:08:00,55.7,51.0,29.86,SSE,148,12.0,12.0,85,0.00,,,0.01,weatherlink.com 1.10,2013-05-06 13:08:00,
2013-05-06 09:23:00,56.0,51.0,29.86,SSW,197,7.0,12.0,82,0.00,,,0.01,weatherlink.com 1.10,2013-05-06 13:23:00,
2013-05-06 09:38:00,55.7,50.0,29.87,SSW,197,15.0,15.0,82,0.00,,,0.01,weatherlink.com 1.10,2013-05-06 13:38:00,
2013-05-06 09:53:00,55.2,50.0,29.87,South,173,7.0,15.0,82,0.00,,,0.01,weatherlink.com 1.10,2013-05-06 13:53:00,
2013-05-06 10:08:00,56.6,51.0,29.87,WSW,243,7.0,16.0,80,0.00,,,0.01,weatherlink.com 1.10,2013-05-06 14:08:00,
2013-05-06 10:23:00,57.5,51.0,29.87,WNW,301,9.0,17.0,79,0.00,,,0.01,weatherlink.com 1.10,2013-05-06 14:23:00,
2013-05-06 10:39:00,58.2,51.0,29.87,SSE,156,11.0,15.0,77,0.00,,,0.01,weatherlink.com 1.10,2013-05-06 14:39:00,
2013-05-06 10:54:00,57.4,49.0,29.87,SSE,158,9.0,16.0,73,0.00,,,0.01,weatherlink.com 1.10,2013-05-06 14:54:00,
2013-05-06 11:09:00,57.4,48.0,29.88,South,173,6.0,14.0,72,0.00,,,0.01,weatherlink.com 1.10,2013-05-06 15:09:00,
2013-05-06 11:24:00,59.0,48.0,29.88,SSE,162,10.0,20.0,67,0.00,,,0.01,weatherlink.com 1.10,2013-05-06 15:24:00,
2013-05-06 11:40:00,59.0,48.0,29.88,SE,140,8.0,19.0,67,0.00,,,0.01,weatherlink.com 1.10,2013-05-06 15:40:00,
2013-05-06 11:54:00,60.5,48.0,29.87,SSE,159,11.0,19.0,64,0.00,,,0.01,weatherlink.com 1.10,2013-05-06 15:54:00,
2013-05-06 12:09:00,59.3,50.0,29.87,South,187,5.0,16.0,70,0.00,,,0.01,weatherlink.com 1.10,2013-05-06 16:09:00,
2013-05-06 12:24:00,60.4,48.0,29.86,SSW,205,11.0,20.0,65,0.00,,,0.01,weatherlink.com 1.10,2013-05-06 16:24:00,
2013-05-06 12:39:00,61.1,47.0,29.86,SW,215,12.0,23.0,61,0.00,,,0.01,weatherlink.com 1.10,2013-05-06 16:39:00,
2013-05-06 12:54:00,60.7,46.0,29.86,ENE,68,10.0,20.0,59,0.00,,,0.01,weatherlink.com 1.10,2013-05-06 16:54:00,
2013-05-06 13:09:00,61.2,47.0,29.85,SSE,156,12.0,17.0,59,0.00,,,0.01,weatherlink.com 1.10,2013-05-06 17:09:00,
2013-05-06 13:24:00,62.6,45.0,29.85,South,191,9.0,24.0,53,0.00,,,0.01,weatherlink.com 1.10,2013-05-06 17:24:00,
2013-05-06 13:39:00,62.6,45.0,29.85,SE,146,8.0,23.0,52,0.00,,,0.01,weatherlink.com 1.10,2013-05-06 17:39:00,
2013-05-06 13:54:00,62.5,45.0,29.84,SSE,154,4.0,23.0,54,0.00,,,0.01,weatherlink.com 1.10,2013-05-06 17:54:00,
2013-05-06 14:09:00,63.9,44.0,29.84,SSE,168,7.0,20.0,49,0.00,,,0.01,weatherlink.com 1.10,2013-05-06 18:09:00,
2013-05-06 14:24:00,63.9,44.0,29.84,SW,219,6.0,17.0,48,0.00,,,0.01,weatherlink.com 1.10,2013-05-06 18:24:00,
2013-05-06 14:39:00,63.7,41.0,29.84,SSE,158,10.0,22.0,43,0.00,,,0.01,weatherlink.com 1.10,2013-05-06 18:39:00,
2013-05-06 14:54:00,64.2,39.0,29.84,WSW,243,16.0,20.0,40,0.00,,,0.01,weatherlink.com 1.10,2013-05-06 18:54:00,
2013-05-06 15:09:00,63.1,41.0,29.84,SW,222,10.0,18.0,45,0.00,,,0.01,weatherlink.com 1.10,2013-05-06 19:09:00,
2013-05-06 15:39:00,64.4,42.0,29.83,SSW,212,6.0,16.0,45,0.00,,,0.01,weatherlink.com 1.10,2013-05-06 19:39:00,
2013-05-06 15:54:00,65.5,42.0,29.82,SSE,153,4.0,11.0,42,0.00,,,0.01,weatherlink.com 1.10,2013-05-06 19:54:00,
2013-05-06 16:09:00,65.0,42.0,29.82,SSE,156,13.0,21.0,44,0.00,,,0.01,weatherlink.com 1.10,2013-05-06 20:09:00,
2013-05-06 16:24:00,65.3,41.0,29.82,South,191,6.0,17.0,41,0.00,,,0.01,weatherlink.com 1.10,2013-05-06 20:24:00,
2013-05-06 16:39:00,64.6,43.0,29.82,South,177,5.0,18.0,46,0.00,,,0.01,weatherlink.com 1.10,2013-05-06 20:39:00,
2013-05-06 16:54:00,65.2,44.0,29.82,SSW,208,5.0,16.0,47,0.00,,,0.01,weatherlink.com 1.10,2013-05-06 20:54:00,
2013-05-06 17:09:00,64.9,45.0,29.82,SSW,200,5.0,15.0,48,0.00,,,0.01,weatherlink.com 1.10,2013-05-06 21:09:00,
2013-05-06 17:24:00,65.3,46.0,29.82,South,174,13.0,15.0,50,0.00,,,0.01,weatherlink.com 1.10,2013-05-06 21:24:00,
2013-05-06 17:39:00,63.4,45.0,29.82,SE,145,5.0,12.0,52,0.00,,,0.01,weatherlink.com 1.10,2013-05-06 21:39:00,
2013-05-06 17:54:00,62.4,46.0,29.82,SSE,155,2.0,10.0,55,0.00,,,0.01,weatherlink.com 1.10,2013-05-06 21:54:00,
2013-05-06 18:09:00,63.2,46.0,29.82,SSE,163,5.0,15.0,54,0.00,,,0.01,weatherlink.com 1.10,2013-05-06 22:09:00,
2013-05-06 18:24:00,63.2,46.0,29.82,SSE,160,13.0,14.0,53,0.00,,,0.01,weatherlink.com 1.10,2013-05-06 22:24:00,
2013-05-06 18:39:00,63.2,46.0,29.82,SW,228,4.0,14.0,54,0.00,,,0.01,weatherlink.com 1.10,2013-05-06 22:39:00,
2013-05-06 18:54:00,61.8,46.0,29.83,SW,218,15.0,17.0,56,0.00,,,0.01,weatherlink.com 1.10,2013-05-06 22:54:00,
2013-05-06 19:09:00,61.1,46.0,29.83,SSE,167,6.0,14.0,58,0.00,,,0.01,weatherlink.com 1.10,2013-05-06 23:09:00,
2013-05-06 19:25:00,60.8,45.0,29.83,South,173,11.0,13.0,57,0.00,,,0.01,weatherlink.com 1.10,2013-05-06 23:25:00,
2013-05-06 19:39:00,59.3,44.0,29.84,SSW,212,6.0,14.0,58,0.00,,,0.01,weatherlink.com 1.10,2013-05-06 23:39:00,
2013-05-06 19:54:00,58.2,44.0,29.84,SSE,150,6.0,16.0,60,0.00,,,0.01,weatherlink.com 1.10,2013-05-06 23:54:00,
2013-05-06 20:09:00,57.2,44.0,29.84,SE,143,7.0,16.0,62,0.00,,,0.01,weatherlink.com 1.10,2013-05-07 00:09:00,
2013-05-06 20:24:00,56.3,44.0,29.86,ESE,118,5.0,13.0,64,0.00,,,0.01,weatherlink.com 1.10,2013-05-07 00:24:00,
2013-05-06 20:39:00,55.3,44.0,29.86,SE,131,7.0,10.0,67,0.00,,,0.01,weatherlink.com 1.10,2013-05-07 00:39:00,
2013-05-06 20:54:00,54.7,44.0,29.87,SE,131,5.0,10.0,68,0.00,,,0.01,weatherlink.com 1.10,2013-05-07 00:54:00,
2013-05-06 21:09:00,54.0,44.0,29.88,South,178,6.0,12.0,70,0.00,,,0.01,weatherlink.com 1.10,2013-05-07 01:09:00,
2013-05-06 21:24:00,53.4,45.0,29.88,SSE,155,6.0,12.0,72,0.00,,,0.01,weatherlink.com 1.10,2013-05-07 01:24:00,
2013-05-06 21:39:00,52.7,45.0,29.89,SSE,159,5.0,10.0,75,0.00,,,0.01,weatherlink.com 1.10,2013-05-07 01:39:00,
2013-05-06 21:54:00,52.2,45.0,29.89,SE,134,5.0,12.0,76,0.00,,,0.01,weatherlink.com 1.10,2013-05-07 01:54:00,
2013-05-06 22:09:00,51.4,45.0,29.91,NW,318,0.0,4.0,80,0.00,,,0.01,weatherlink.com 1.10,2013-05-07 02:09:00,
2013-05-06 22:24:00,50.2,45.0,29.91,SSE,152,0.0,2.0,82,0.00,,,0.01,weatherlink.com 1.10,2013-05-07 02:24:00,
2013-05-06 22:40:00,49.1,45.0,29.91,NNE,19,0.0,3.0,86,0.00,,,0.01,weatherlink.com 1.10,2013-05-07 02:40:00,
2013-05-06 22:55:00,48.6,45.0,29.92,NNE,19,0.0,0.0,88,0.00,,,0.01,weatherlink.com 1.10,2013-05-07 02:55:00,
2013-05-06 23:10:00,47.6,45.0,29.92,SSW,201,0.0,1.0,89,0.00,,,0.01,weatherlink.com 1.10,2013-05-07 03:10:00,
2013-05-06 23:25:00,46.6,44.0,29.92,South,171,1.0,2.0,90,0.00,,,0.01,weatherlink.com 1.10,2013-05-07 03:25:00,
2013-05-06 23:40:00,46.9,45.0,29.92,NNE,27,0.0,1.0,92,0.00,,,0.01,weatherlink.com 1.10,2013-05-07 03:40:00,
2013-05-06 23:55:00,46.6,44.0,29.92,NE,40,0.0,2.0,92,0.00,,,0.01,weatherlink.com 1.10,2013-05-07 03:55:00,